»·PEaware :: N561BF KAPA-KJAC

N561BF :: KAPA-KJAC

FLIGHT INFORMATION

Flight Status: Arrived
Operator: Privately registered:
United States
More flights under this callsign
Pilot: Ben F. (2808)
Aircraft: BOEING 737-200
(B732)
More flights by this aircraft type
Origin: KAPA Centennial
United States
Destination: KJAC Jackson Hole
United States
More flights between these airports :: More routes between these airports
Route: +YELLO1 LAR DNW
File this flight plan on PilotEdge
Remarks: PBN / A1B2 NAV / RNVD1E2A1 REG / N275SB EET / KZLC0035 TALT / KCOS RMK / SIMBRIEF
Altitude:
(Current/Filed)
28,000ft
Speed:
(Current/Filed)
437kts
Departed: 04-Feb-18 11:17 AM
Arrived: 04-Feb-18 01:05 PM
Distance/Time
Traveled:
358nm/1:48
Distance/Time
To Go:
Arrived

Flight Plot

Page will automatically refresh every two minutes.

Flight plan parsing failed; only flown route is shown


Map Options




Map Legend


Flown Route
Filed Route
Departure Airport
Arrival Airport
Navaid (VOR, NDB)
Fix

Horizontal Profiles

Position Reports

Time Latitude Longitude Heading Altitude Ground
Speed
04-Feb-18 11:05 39.582711 -104.848118 269 5891ft 0kts
04-Feb-18 11:06 39.582711 -104.848118 269 5891ft 0kts
04-Feb-18 11:07 39.582711 -104.848118 269 5891ft 0kts
04-Feb-18 11:08 39.582711 -104.848118 269 5891ft 0kts
04-Feb-18 11:09 39.582711 -104.848118 269 5891ft 0kts
04-Feb-18 11:10 39.582711 -104.848118 269 5891ft 0kts
04-Feb-18 11:11 39.582711 -104.848118 269 5891ft 0kts
04-Feb-18 11:12 39.582711 -104.848118 268 5891ft 0kts
04-Feb-18 11:13 39.582711 -104.848118 269 5891ft 0kts
04-Feb-18 11:14 39.582710 -104.848132 272 5891ft 1kts
04-Feb-18 11:15 39.582690 -104.848769 268 5891ft 0kts
04-Feb-18 11:16 39.582690 -104.848770 268 5891ft 0kts
04-Feb-18 11:17 39.582690 -104.848771 268 5891ft 0kts
04-Feb-18 11:18 39.582441 -104.849421 254 5891ft 0kts
04-Feb-18 11:19 39.582682 -104.849987 6 5891ft 8kts
04-Feb-18 11:20 39.584075 -104.850188 277 5891ft 0kts
04-Feb-18 11:21 39.584075 -104.850188 277 5891ft 0kts
04-Feb-18 11:22 39.584052 -104.851237 242 5891ft 8kts
04-Feb-18 11:23 39.574379 -104.851025 177 5891ft 132kts
04-Feb-18 11:24 39.520980 -104.851006 178 7446ft 227kts
04-Feb-18 11:25 39.448616 -104.847329 178 9213ft 305kts
04-Feb-18 11:26 39.387799 -104.892826 271 12762ft 248kts
04-Feb-18 11:27 39.437379 -104.938657 358 15175ft 285kts
04-Feb-18 11:39 39.577775 -104.848152 358 5891ft 0kts
04-Feb-18 11:40 39.577775 -104.848152 358 5891ft 0kts
04-Feb-18 11:41 39.577775 -104.848152 358 5891ft 0kts
04-Feb-18 11:42 39.577775 -104.848152 358 5891ft 0kts
04-Feb-18 11:43 39.577775 -104.848152 358 5891ft 0kts
04-Feb-18 11:44 39.577775 -104.848152 358 5891ft 0kts
04-Feb-18 11:45 39.577775 -104.848152 358 5891ft 0kts
04-Feb-18 11:46 39.577847 -104.848165 346 5891ft 2kts
04-Feb-18 11:47 39.578989 -104.849116 309 5891ft 0kts
04-Feb-18 11:48 39.580294 -104.849879 358 5891ft 18kts
04-Feb-18 11:49 39.584097 -104.850242 280 5891ft 0kts
04-Feb-18 11:50 39.584097 -104.850242 281 5891ft 0kts
04-Feb-18 11:51 39.583516 -104.851457 177 5891ft 0kts
04-Feb-18 11:52 39.562099 -104.850595 175 5976ft 182kts
04-Feb-18 11:53 39.502938 -104.850821 178 7867ft 234kts
04-Feb-18 11:54 39.430871 -104.847784 177 8017ft 278kts
04-Feb-18 11:55 39.355730 -104.841345 151 7992ft 258kts
04-Feb-18 11:56 39.348577 -104.768568 26 9049ft 232kts
04-Feb-18 11:57 39.410918 -104.772278 341 10104ft 255kts
04-Feb-18 11:58 39.486403 -104.791351 344 12247ft 296kts
04-Feb-18 11:59 39.566517 -104.808337 343 14904ft 304kts
04-Feb-18 12:00 39.647806 -104.825599 343 17171ft 311kts
04-Feb-18 12:01 39.731412 -104.843417 343 19100ft 317kts
04-Feb-18 12:02 39.817698 -104.861823 343 20782ft 322kts
04-Feb-18 12:03 39.905031 -104.880475 343 22232ft 327kts
04-Feb-18 12:04 39.994865 -104.899700 343 23261ft 335kts
04-Feb-18 12:05 40.086290 -104.919272 343 23264ft 334kts
04-Feb-18 12:06 40.173491 -104.938018 343 23272ft 337kts
04-Feb-18 12:07 40.266052 -104.957962 343 23850ft 341kts
04-Feb-18 12:08 40.359598 -104.978158 343 24987ft 346kts
04-Feb-18 12:09 40.454118 -104.998611 343 25937ft 350kts
04-Feb-18 12:10 40.549639 -105.019328 343 26769ft 355kts
04-Feb-18 12:11 40.646756 -105.040427 343 27629ft 356kts
04-Feb-18 12:12 40.744233 -105.062116 338 28222ft 357kts
04-Feb-18 12:13 40.824506 -105.135248 317 28236ft 361kts
04-Feb-18 12:14 40.902647 -105.222021 317 28166ft 376kts
04-Feb-18 12:15 40.983258 -105.313171 317 28072ft 387kts
04-Feb-18 12:16 41.063907 -105.404874 317 28041ft 379kts
04-Feb-18 12:17 41.138638 -105.490106 317 28051ft 370kts
04-Feb-18 12:18 41.214798 -105.577242 317 28032ft 366kts
04-Feb-18 12:19 41.289689 -105.663220 316 28042ft 368kts
04-Feb-18 12:21 41.359928 -105.757899 308 28040ft 369kts
04-Feb-18 12:22 41.422936 -105.865060 307 28038ft 371kts
04-Feb-18 12:23 41.485673 -105.973296 307 28037ft 370kts
04-Feb-18 12:24 41.547431 -106.080376 307 28033ft 364kts
04-Feb-18 12:25 41.607096 -106.187269 306 28059ft 358kts
04-Feb-18 12:26 41.665652 -106.293623 306 28092ft 359kts
04-Feb-18 12:27 41.721514 -106.396414 306 28102ft 362kts
04-Feb-18 12:28 41.780885 -106.505260 306 28100ft 365kts
04-Feb-18 12:29 41.840699 -106.614681 307 28095ft 366kts
04-Feb-18 12:30 41.899796 -106.720193 306 28090ft 368kts
04-Feb-18 12:31 41.961477 -106.829920 306 28068ft 370kts
04-Feb-18 12:32 42.023473 -106.940510 306 28066ft 372kts
04-Feb-18 12:33 42.085727 -107.052008 306 28066ft 375kts
04-Feb-18 12:34 42.144803 -107.158149 306 28075ft 378kts
04-Feb-18 12:35 42.207571 -107.271374 306 28073ft 381kts
04-Feb-18 12:36 42.270902 -107.386038 306 28071ft 382kts
04-Feb-18 12:37 42.334293 -107.501266 306 28069ft 383kts
04-Feb-18 12:38 42.397614 -107.616781 306 28067ft 384kts
04-Feb-18 12:39 42.459263 -107.729695 305 28084ft 385kts
04-Feb-18 12:40 42.522786 -107.846459 305 28096ft 385kts
04-Feb-18 12:41 42.585701 -107.962552 305 28099ft 380kts
04-Feb-18 12:42 42.647688 -108.077406 305 28097ft 377kts
04-Feb-18 12:42 42.699006 -108.172822 305 28096ft 375kts
04-Feb-18 12:44 42.770093 -108.305497 305 28092ft 372kts
04-Feb-18 12:45 42.830636 -108.418952 305 27966ft 365kts
04-Feb-18 12:46 42.889703 -108.530065 305 26254ft 361kts
04-Feb-18 12:46 42.938059 -108.621345 305 24804ft 351kts
04-Feb-18 12:48 42.999901 -108.738532 305 24094ft 349kts
04-Feb-18 12:48 43.047935 -108.829822 306 24091ft 361kts
04-Feb-18 12:49 43.105917 -108.940374 306 24091ft 369kts
04-Feb-18 12:50 43.162941 -109.049386 305 24061ft 337kts
04-Feb-18 12:51 43.215905 -109.151167 304 23344ft 331kts
04-Feb-18 12:52 43.269237 -109.254010 303 21862ft 333kts
04-Feb-18 12:53 43.321930 -109.355975 303 20333ft 330kts
04-Feb-18 12:54 43.373694 -109.456466 303 18833ft 321kts
04-Feb-18 12:55 43.424463 -109.555317 303 17152ft 319kts
04-Feb-18 12:56 43.473394 -109.650922 302 15601ft 316kts
04-Feb-18 12:57 43.518420 -109.739177 302 14254ft 314kts
04-Feb-18 12:58 43.565823 -109.832407 302 13916ft 301kts
04-Feb-18 12:59 43.612449 -109.924402 302 13917ft 300kts
04-Feb-18 13:00 43.658529 -110.015569 302 13917ft 299kts
04-Feb-18 13:01 43.704868 -110.107534 302 13915ft 297kts
04-Feb-18 13:02 43.750284 -110.197912 302 13911ft 286kts
04-Feb-18 13:03 43.794476 -110.286191 302 13901ft 280kts
04-Feb-18 13:04 43.803963 -110.387421 267 12877ft 275kts
04-Feb-18 13:05 43.798452 -110.491260 265 11384ft 271kts
04-Feb-18 13:06 43.772188 -110.582512 245 10095ft 263kts
04-Feb-18 13:07 43.723051 -110.648044 221 8700ft 240kts
04-Feb-18 13:08 43.672992 -110.691342 225 7952ft 215kts
04-Feb-18 13:09 43.630312 -110.726497 201 6799ft 145kts
04-Feb-18 13:10 43.602002 -110.740355 200 6460ft 42kts
04-Feb-18 13:11 43.599995 -110.739735 23 6460ft 10kts
04-Feb-18 13:12 43.603324 -110.737874 42 6460ft 11kts
04-Feb-18 13:13 43.603481 -110.737074 108 6460ft 0kts
04-Feb-18 13:14 43.603481 -110.737074 108 6460ft 0kts
04-Feb-18 13:15 43.603481 -110.737074 108 6460ft 0kts
04-Feb-18 13:16 43.603481 -110.737074 108 6460ft 0kts
04-Feb-18 13:17 43.603481 -110.737074 108 6460ft 0kts
04-Feb-18 13:18 43.603481 -110.737074 108 6460ft 0kts

Navigation Log

Ident Type
Flight plan parsing failed, navigation log unavailable